sensor_id;sensor_type;location;lat;lon;timestamp;temperature;humidity
7958;DHT22;4024;52.172;5.378;2023-03-04T00:01:17;8.60;99.90
7958;DHT22;4024;52.172;5.378;2023-03-04T00:03:42;8.60;99.90
7958;DHT22;4024;52.172;5.378;2023-03-04T00:06:08;8.60;99.90
7958;DHT22;4024;52.172;5.378;2023-03-04T00:08:34;8.60;99.90
7958;DHT22;4024;52.172;5.378;2023-03-04T00:10:59;8.60;99.90
7958;DHT22;4024;52.172;5.378;2023-03-04T00:13:25;8.70;99.90
7958;DHT22;4024;52.172;5.378;2023-03-04T00:15:51;8.60;99.90
7958;DHT22;4024;52.172;5.378;2023-03-04T00:18:17;8.60;99.90
7958;DHT22;4024;52.172;5.378;2023-03-04T00:20:45;8.60;99.90
7958;DHT22;4024;52.172;5.378;2023-03-04T00:23:11;8.60;99.90
7958;DHT22;4024;52.172;5.378;2023-03-04T00:25:36;8.60;99.90
7958;DHT22;4024;52.172;5.378;2023-03-04T00:28:02;8.60;99.90
7958;DHT22;4024;52.172;5.378;2023-03-04T00:30:28;8.60;99.90
7958;DHT22;4024;52.172;5.378;2023-03-04T00:32:54;8.60;99.90
7958;DHT22;4024;52.172;5.378;2023-03-04T00:35:19;8.60;99.90
7958;DHT22;4024;52.172;5.378;2023-03-04T00:37:45;8.60;99.90
7958;DHT22;4024;52.172;5.378;2023-03-04T00:40:11;8.60;99.90
7958;DHT22;4024;52.172;5.378;2023-03-04T00:42:36;8.60;99.90
7958;DHT22;4024;52.172;5.378;2023-03-04T00:45:02;8.60;99.90
7958;DHT22;4024;52.172;5.378;2023-03-04T00:47:28;8.60;99.90
7958;DHT22;4024;52.172;5.378;2023-03-04T00:49:53;8.60;99.90
7958;DHT22;4024;52.172;5.378;2023-03-04T00:52:19;8.60;99.90
7958;DHT22;4024;52.172;5.378;2023-03-04T00:54:44;8.50;99.90
7958;DHT22;4024;52.172;5.378;2023-03-04T00:57:10;8.50;99.90
7958;DHT22;4024;52.172;5.378;2023-03-04T00:59:35;8.60;99.90
7958;DHT22;4024;52.172;5.378;2023-03-04T01:02:01;8.60;99.90
7958;DHT22;4024;52.172;5.378;2023-03-04T01:04:27;8.60;99.90
7958;DHT22;4024;52.172;5.378;2023-03-04T01:06:52;8.60;99.90
7958;DHT22;4024;52.172;5.378;2023-03-04T01:09:18;8.60;99.90
7958;DHT22;4024;52.172;5.378;2023-03-04T01:11:44;8.60;99.90
7958;DHT22;4024;52.172;5.378;2023-03-04T01:14:09;8.60;99.90
7958;DHT22;4024;52.172;5.378;2023-03-04T01:16:35;8.60;99.90
7958;DHT22;4024;52.172;5.378;2023-03-04T01:19:01;8.60;99.90
7958;DHT22;4024;52.172;5.378;2023-03-04T01:21:26;8.60;99.90
7958;DHT22;4024;52.172;5.378;2023-03-04T01:23:52;8.60;99.90
7958;DHT22;4024;52.172;5.378;2023-03-04T01:26:18;8.60;99.90
7958;DHT22;4024;52.172;5.378;2023-03-04T01:28:43;8.50;99.90
7958;DHT22;4024;52.172;5.378;2023-03-04T01:31:09;8.50;99.90
7958;DHT22;4024;52.172;5.378;2023-03-04T01:33:34;8.50;99.90
7958;DHT22;4024;52.172;5.378;2023-03-04T01:36:00;8.50;99.90
7958;DHT22;4024;52.172;5.378;2023-03-04T01:38:26;8.50;99.90
7958;DHT22;4024;52.172;5.378;2023-03-04T01:40:51;8.50;99.90
7958;DHT22;4024;52.172;5.378;2023-03-04T01:43:22;8.50;99.90
7958;DHT22;4024;52.172;5.378;2023-03-04T01:45:49;8.50;99.90
7958;DHT22;4024;52.172;5.378;2023-03-04T01:48:18;8.50;99.90
7958;DHT22;4024;52.172;5.378;2023-03-04T01:50:45;8.50;99.90
7958;DHT22;4024;52.172;5.378;2023-03-04T01:53:19;8.50;99.90
7958;DHT22;4024;52.172;5.378;2023-03-04T01:55:45;8.50;99.90
7958;DHT22;4024;52.172;5.378;2023-03-04T01:58:11;8.50;99.90
7958;DHT22;4024;52.172;5.378;2023-03-04T02:00:37;8.50;99.90
7958;DHT22;4024;52.172;5.378;2023-03-04T02:03:12;8.50;99.90
7958;DHT22;4024;52.172;5.378;2023-03-04T02:05:42;8.50;99.90
7958;DHT22;4024;52.172;5.378;2023-03-04T02:08:09;8.50;99.90
7958;DHT22;4024;52.172;5.378;2023-03-04T02:10:36;8.50;99.90
7958;DHT22;4024;52.172;5.378;2023-03-04T02:13:02;8.50;99.90
7958;DHT22;4024;52.172;5.378;2023-03-04T02:15:29;8.50;99.90
7958;DHT22;4024;52.172;5.378;2023-03-04T02:17:55;8.50;99.90
7958;DHT22;4024;52.172;5.378;2023-03-04T02:25:41;8.50;99.90
7958;DHT22;4024;52.172;5.378;2023-03-04T02:28:08;8.40;99.90
7958;DHT22;4024;52.172;5.378;2023-03-04T02:30:33;8.40;99.90
7958;DHT22;4024;52.172;5.378;2023-03-04T02:32:59;8.40;99.90
7958;DHT22;4024;52.172;5.378;2023-03-04T02:35:26;8.40;99.90
7958;DHT22;4024;52.172;5.378;2023-03-04T02:37:52;8.40;99.90
7958;DHT22;4024;52.172;5.378;2023-03-04T02:40:22;8.40;99.90
7958;DHT22;4024;52.172;5.378;2023-03-04T02:42:49;8.50;99.90
7958;DHT22;4024;52.172;5.378;2023-03-04T02:45:33;8.50;99.90
7958;DHT22;4024;52.172;5.378;2023-03-04T02:47:59;8.40;99.90
7958;DHT22;4024;52.172;5.378;2023-03-04T02:50:26;8.50;99.90
7958;DHT22;4024;52.172;5.378;2023-03-04T02:52:52;8.40;99.90
7958;DHT22;4024;52.172;5.378;2023-03-04T02:55:18;8.40;99.90
7958;DHT22;4024;52.172;5.378;2023-03-04T02:57:43;8.40;99.90
7958;DHT22;4024;52.172;5.378;2023-03-04T03:00:10;8.40;99.90
7958;DHT22;4024;52.172;5.378;2023-03-04T03:02:36;8.40;99.90
7958;DHT22;4024;52.172;5.378;2023-03-04T03:05:01;8.40;99.90
7958;DHT22;4024;52.172;5.378;2023-03-04T03:07:27;8.30;99.90
7958;DHT22;4024;52.172;5.378;2023-03-04T03:09:53;8.40;99.90
7958;DHT22;4024;52.172;5.378;2023-03-04T03:12:18;8.40;99.90
7958;DHT22;4024;52.172;5.378;2023-03-04T03:14:45;8.40;99.90
7958;DHT22;4024;52.172;5.378;2023-03-04T03:17:11;8.40;99.90
7958;DHT22;4024;52.172;5.378;2023-03-04T03:19:36;8.40;99.90
7958;DHT22;4024;52.172;5.378;2023-03-04T03:22:02;8.40;99.90
7958;DHT22;4024;52.172;5.378;2023-03-04T03:24:27;8.40;99.90
7958;DHT22;4024;52.172;5.378;2023-03-04T03:26:53;8.40;99.90
7958;DHT22;4024;52.172;5.378;2023-03-04T03:29:19;8.40;99.90
7958;DHT22;4024;52.172;5.378;2023-03-04T03:31:44;8.40;99.90
7958;DHT22;4024;52.172;5.378;2023-03-04T03:34:10;8.40;99.90
7958;DHT22;4024;52.172;5.378;2023-03-04T03:36:35;8.40;99.90
7958;DHT22;4024;52.172;5.378;2023-03-04T03:39:01;8.40;99.90
7958;DHT22;4024;52.172;5.378;2023-03-04T03:41:26;8.40;99.90
7958;DHT22;4024;52.172;5.378;2023-03-04T03:43:53;8.40;99.90
7958;DHT22;4024;52.172;5.378;2023-03-04T03:46:19;8.40;99.90
7958;DHT22;4024;52.172;5.378;2023-03-04T03:48:44;8.40;99.90
7958;DHT22;4024;52.172;5.378;2023-03-04T03:51:10;8.40;99.90
7958;DHT22;4024;52.172;5.378;2023-03-04T03:53:35;8.40;99.90
7958;DHT22;4024;52.172;5.378;2023-03-04T03:56:01;8.40;99.90
7958;DHT22;4024;52.172;5.378;2023-03-04T03:58:26;8.40;99.90
7958;DHT22;4024;52.172;5.378;2023-03-04T04:00:52;8.30;99.90
7958;DHT22;4024;52.172;5.378;2023-03-04T04:03:18;8.40;99.90
7958;DHT22;4024;52.172;5.378;2023-03-04T04:05:44;8.40;99.90
7958;DHT22;4024;52.172;5.378;2023-03-04T04:08:12;8.30;99.90
7958;DHT22;4024;52.172;5.378;2023-03-04T04:10:39;8.30;99.90
7958;DHT22;4024;52.172;5.378;2023-03-04T04:13:04;8.30;99.90
7958;DHT22;4024;52.172;5.378;2023-03-04T04:15:30;8.30;99.90
7958;DHT22;4024;52.172;5.378;2023-03-04T04:17:56;8.30;99.90
7958;DHT22;4024;52.172;5.378;2023-03-04T04:20:22;8.30;99.90
7958;DHT22;4024;52.172;5.378;2023-03-04T04:22:47;8.20;99.90
7958;DHT22;4024;52.172;5.378;2023-03-04T04:25:13;8.20;99.90
7958;DHT22;4024;52.172;5.378;2023-03-04T04:27:38;8.40;99.90
7958;DHT22;4024;52.172;5.378;2023-03-04T04:30:04;8.30;99.90
7958;DHT22;4024;52.172;5.378;2023-03-04T04:32:30;8.30;99.90
7958;DHT22;4024;52.172;5.378;2023-03-04T04:34:56;8.20;99.90
7958;DHT22;4024;52.172;5.378;2023-03-04T04:37:21;8.20;99.90
7958;DHT22;4024;52.172;5.378;2023-03-04T04:39:47;8.20;99.90
7958;DHT22;4024;52.172;5.378;2023-03-04T04:42:12;8.30;99.90
7958;DHT22;4024;52.172;5.378;2023-03-04T04:44:38;8.20;99.90
7958;DHT22;4024;52.172;5.378;2023-03-04T04:47:05;8.20;99.90
7958;DHT22;4024;52.172;5.378;2023-03-04T04:49:31;8.20;99.90
7958;DHT22;4024;52.172;5.378;2023-03-04T04:51:57;8.20;99.90
7958;DHT22;4024;52.172;5.378;2023-03-04T04:54:22;8.20;99.90
7958;DHT22;4024;52.172;5.378;2023-03-04T04:56:49;8.20;99.90
7958;DHT22;4024;52.172;5.378;2023-03-04T04:59:14;8.20;99.90
7958;DHT22;4024;52.172;5.378;2023-03-04T05:01:40;8.20;99.90
7958;DHT22;4024;52.172;5.378;2023-03-04T05:04:06;8.20;99.90
7958;DHT22;4024;52.172;5.378;2023-03-04T05:06:31;8.20;99.90
7958;DHT22;4024;52.172;5.378;2023-03-04T05:08:57;8.20;99.90
7958;DHT22;4024;52.172;5.378;2023-03-04T05:11:23;8.30;99.90
7958;DHT22;4024;52.172;5.378;2023-03-04T05:13:49;8.20;99.90
7958;DHT22;4024;52.172;5.378;2023-03-04T05:16:15;8.20;99.90
7958;DHT22;4024;52.172;5.378;2023-03-04T05:18:41;8.30;99.90
7958;DHT22;4024;52.172;5.378;2023-03-04T05:21:07;8.20;99.90
7958;DHT22;4024;52.172;5.378;2023-03-04T05:23:35;8.30;99.90
7958;DHT22;4024;52.172;5.378;2023-03-04T05:26:02;8.30;99.90
7958;DHT22;4024;52.172;5.378;2023-03-04T05:28:28;8.30;99.90
7958;DHT22;4024;52.172;5.378;2023-03-04T05:30:54;8.30;99.90
7958;DHT22;4024;52.172;5.378;2023-03-04T05:33:20;8.30;99.90
7958;DHT22;4024;52.172;5.378;2023-03-04T05:35:47;8.30;99.90
7958;DHT22;4024;52.172;5.378;2023-03-04T05:38:15;8.30;99.90
7958;DHT22;4024;52.172;5.378;2023-03-04T05:40:42;8.30;99.90
7958;DHT22;4024;52.172;5.378;2023-03-04T05:43:08;8.30;99.90
7958;DHT22;4024;52.172;5.378;2023-03-04T05:45:34;8.30;99.90
7958;DHT22;4024;52.172;5.378;2023-03-04T05:47:59;8.30;99.90
7958;DHT22;4024;52.172;5.378;2023-03-04T05:50:25;8.30;99.90
7958;DHT22;4024;52.172;5.378;2023-03-04T05:52:51;8.30;99.90
7958;DHT22;4024;52.172;5.378;2023-03-04T05:55:17;8.30;99.90
7958;DHT22;4024;52.172;5.378;2023-03-04T05:57:44;8.30;99.90
7958;DHT22;4024;52.172;5.378;2023-03-04T06:00:10;8.30;99.90
7958;DHT22;4024;52.172;5.378;2023-03-04T06:02:38;8.30;99.90
7958;DHT22;4024;52.172;5.378;2023-03-04T06:05:04;8.30;99.90
7958;DHT22;4024;52.172;5.378;2023-03-04T06:07:30;8.30;99.90
7958;DHT22;4024;52.172;5.378;2023-03-04T06:09:56;8.30;99.90
7958;DHT22;4024;52.172;5.378;2023-03-04T06:12:21;8.30;99.90
7958;DHT22;4024;52.172;5.378;2023-03-04T06:14:47;8.30;99.90
7958;DHT22;4024;52.172;5.378;2023-03-04T06:17:12;8.30;99.90
7958;DHT22;4024;52.172;5.378;2023-03-04T06:19:38;8.30;99.90
7958;DHT22;4024;52.172;5.378;2023-03-04T06:22:06;8.30;99.90
7958;DHT22;4024;52.172;5.378;2023-03-04T06:24:32;8.30;99.90
7958;DHT22;4024;52.172;5.378;2023-03-04T06:26:57;8.30;99.90
7958;DHT22;4024;52.172;5.378;2023-03-04T06:29:23;8.30;99.90
7958;DHT22;4024;52.172;5.378;2023-03-04T06:31:48;8.30;99.90
7958;DHT22;4024;52.172;5.378;2023-03-04T06:34:14;8.30;99.90
7958;DHT22;4024;52.172;5.378;2023-03-04T06:36:39;8.30;99.90
7958;DHT22;4024;52.172;5.378;2023-03-04T06:39:06;8.30;99.90
7958;DHT22;4024;52.172;5.378;2023-03-04T06:41:32;8.30;99.90
7958;DHT22;4024;52.172;5.378;2023-03-04T06:43:58;8.30;99.90
7958;DHT22;4024;52.172;5.378;2023-03-04T06:46:25;8.30;99.90
7958;DHT22;4024;52.172;5.378;2023-03-04T06:48:51;8.30;99.90
7958;DHT22;4024;52.172;5.378;2023-03-04T06:51:17;8.30;99.90
7958;DHT22;4024;52.172;5.378;2023-03-04T06:53:42;8.30;99.90
7958;DHT22;4024;52.172;5.378;2023-03-04T06:56:10;8.30;99.90
7958;DHT22;4024;52.172;5.378;2023-03-04T06:58:36;8.30;99.90
7958;DHT22;4024;52.172;5.378;2023-03-04T07:01:10;8.30;99.90
7958;DHT22;4024;52.172;5.378;2023-03-04T07:03:36;8.30;99.90
7958;DHT22;4024;52.172;5.378;2023-03-04T07:06:02;8.30;99.90
7958;DHT22;4024;52.172;5.378;2023-03-04T07:08:27;8.30;99.90
7958;DHT22;4024;52.172;5.378;2023-03-04T07:10:53;8.30;99.90
7958;DHT22;4024;52.172;5.378;2023-03-04T07:13:19;8.30;99.90
7958;DHT22;4024;52.172;5.378;2023-03-04T07:15:44;8.30;99.90
7958;DHT22;4024;52.172;5.378;2023-03-04T07:18:10;8.30;99.90
7958;DHT22;4024;52.172;5.378;2023-03-04T07:20:36;8.30;99.90
7958;DHT22;4024;52.172;5.378;2023-03-04T07:23:01;8.30;99.90
7958;DHT22;4024;52.172;5.378;2023-03-04T07:25:27;8.30;99.90
7958;DHT22;4024;52.172;5.378;2023-03-04T07:27:53;8.30;99.90
7958;DHT22;4024;52.172;5.378;2023-03-04T07:30:18;8.40;99.90
7958;DHT22;4024;52.172;5.378;2023-03-04T07:32:44;8.40;99.90
7958;DHT22;4024;52.172;5.378;2023-03-04T07:35:10;8.40;99.90
7958;DHT22;4024;52.172;5.378;2023-03-04T07:37:35;8.50;99.90
7958;DHT22;4024;52.172;5.378;2023-03-04T07:40:01;8.50;99.90
7958;DHT22;4024;52.172;5.378;2023-03-04T07:42:27;8.50;99.90
7958;DHT22;4024;52.172;5.378;2023-03-04T07:44:52;8.60;99.90
7958;DHT22;4024;52.172;5.378;2023-03-04T07:47:19;8.60;99.90
7958;DHT22;4024;52.172;5.378;2023-03-04T07:49:45;8.60;99.90
7958;DHT22;4024;52.172;5.378;2023-03-04T07:52:10;8.60;99.90
7958;DHT22;4024;52.172;5.378;2023-03-04T07:54:38;8.70;99.90
7958;DHT22;4024;52.172;5.378;2023-03-04T07:57:04;8.70;99.90
7958;DHT22;4024;52.172;5.378;2023-03-04T07:59:30;8.80;99.90
7958;DHT22;4024;52.172;5.378;2023-03-04T08:01:56;8.80;99.90
7958;DHT22;4024;52.172;5.378;2023-03-04T08:04:21;8.90;99.90
7958;DHT22;4024;52.172;5.378;2023-03-04T08:06:49;8.90;99.90
7958;DHT22;4024;52.172;5.378;2023-03-04T08:09:16;8.90;99.90
7958;DHT22;4024;52.172;5.378;2023-03-04T08:11:42;9.00;99.90
7958;DHT22;4024;52.172;5.378;2023-03-04T08:14:10;9.00;99.90
7958;DHT22;4024;52.172;5.378;2023-03-04T08:16:36;9.10;99.90
7958;DHT22;4024;52.172;5.378;2023-03-04T08:19:03;9.10;99.90
7958;DHT22;4024;52.172;5.378;2023-03-04T08:21:29;9.10;99.90
7958;DHT22;4024;52.172;5.378;2023-03-04T08:23:57;9.10;99.90
7958;DHT22;4024;52.172;5.378;2023-03-04T08:26:32;9.10;99.90
7958;DHT22;4024;52.172;5.378;2023-03-04T08:29:01;9.10;99.90
7958;DHT22;4024;52.172;5.378;2023-03-04T08:31:27;9.20;99.90
7958;DHT22;4024;52.172;5.378;2023-03-04T08:33:53;9.20;99.90
7958;DHT22;4024;52.172;5.378;2023-03-04T08:36:19;9.20;99.90
7958;DHT22;4024;52.172;5.378;2023-03-04T08:38:45;9.30;99.90
7958;DHT22;4024;52.172;5.378;2023-03-04T08:41:11;9.30;99.90
7958;DHT22;4024;52.172;5.378;2023-03-04T08:43:37;9.30;99.90
7958;DHT22;4024;52.172;5.378;2023-03-04T08:46:05;9.30;99.90
7958;DHT22;4024;52.172;5.378;2023-03-04T08:48:31;9.40;99.90
7958;DHT22;4024;52.172;5.378;2023-03-04T08:50:56;9.40;99.90
7958;DHT22;4024;52.172;5.378;2023-03-04T08:53:23;9.50;99.90
7958;DHT22;4024;52.172;5.378;2023-03-04T08:55:50;9.50;99.90
7958;DHT22;4024;52.172;5.378;2023-03-04T08:58:16;9.50;99.90
7958;DHT22;4024;52.172;5.378;2023-03-04T09:00:44;9.50;99.90
7958;DHT22;4024;52.172;5.378;2023-03-04T09:03:12;9.50;99.90
7958;DHT22;4024;52.172;5.378;2023-03-04T09:05:38;9.60;99.90
7958;DHT22;4024;52.172;5.378;2023-03-04T09:08:04;9.60;99.90
7958;DHT22;4024;52.172;5.378;2023-03-04T09:10:30;9.70;99.90
7958;DHT22;4024;52.172;5.378;2023-03-04T09:12:57;9.70;99.90
7958;DHT22;4024;52.172;5.378;2023-03-04T09:15:22;9.70;99.90
7958;DHT22;4024;52.172;5.378;2023-03-04T09:17:48;9.80;99.90
7958;DHT22;4024;52.172;5.378;2023-03-04T09:20:14;9.80;99.90
7958;DHT22;4024;52.172;5.378;2023-03-04T09:22:40;9.80;99.90
7958;DHT22;4024;52.172;5.378;2023-03-04T09:25:07;9.90;99.90
7958;DHT22;4024;52.172;5.378;2023-03-04T09:27:32;9.90;99.90
7958;DHT22;4024;52.172;5.378;2023-03-04T09:29:58;10.00;99.90
7958;DHT22;4024;52.172;5.378;2023-03-04T09:32:24;10.00;99.90
7958;DHT22;4024;52.172;5.378;2023-03-04T09:34:49;10.00;99.90
7958;DHT22;4024;52.172;5.378;2023-03-04T09:37:15;10.00;99.90
7958;DHT22;4024;52.172;5.378;2023-03-04T09:39:41;10.10;99.90
7958;DHT22;4024;52.172;5.378;2023-03-04T09:42:17;10.10;99.90
7958;DHT22;4024;52.172;5.378;2023-03-04T09:44:48;10.10;99.90
7958;DHT22;4024;52.172;5.378;2023-03-04T09:47:15;10.20;99.90
7958;DHT22;4024;52.172;5.378;2023-03-04T09:49:47;10.20;99.90
7958;DHT22;4024;52.172;5.378;2023-03-04T10:01:19;10.30;99.90
7958;DHT22;4024;52.172;5.378;2023-03-04T10:06:20;10.40;99.90
7958;DHT22;4024;52.172;5.378;2023-03-04T10:08:53;10.40;99.90
7958;DHT22;4024;52.172;5.378;2023-03-04T10:11:28;10.40;99.90
7958;DHT22;4024;52.172;5.378;2023-03-04T10:14:15;10.40;99.90
7958;DHT22;4024;52.172;5.378;2023-03-04T10:16:45;10.40;99.90
7958;DHT22;4024;52.172;5.378;2023-03-04T10:21:45;10.40;99.90
7958;DHT22;4024;52.172;5.378;2023-03-04T10:24:14;10.40;99.90
7958;DHT22;4024;52.172;5.378;2023-03-04T10:26:44;10.40;99.90
7958;DHT22;4024;52.172;5.378;2023-03-04T10:29:15;10.40;99.90
7958;DHT22;4024;52.172;5.378;2023-03-04T10:31:42;10.40;99.90
7958;DHT22;4024;52.172;5.378;2023-03-04T10:34:13;10.50;99.90
7958;DHT22;4024;52.172;5.378;2023-03-04T10:37:06;10.40;99.90
7958;DHT22;4024;52.172;5.378;2023-03-04T10:39:35;10.50;99.90
7958;DHT22;4024;52.172;5.378;2023-03-04T10:45:03;10.60;99.90
7958;DHT22;4024;52.172;5.378;2023-03-04T10:47:30;10.70;99.90
7958;DHT22;4024;52.172;5.378;2023-03-04T10:49:59;10.70;99.90
7958;DHT22;4024;52.172;5.378;2023-03-04T10:52:31;10.70;99.90
7958;DHT22;4024;52.172;5.378;2023-03-04T10:55:02;10.80;99.90
7958;DHT22;4024;52.172;5.378;2023-03-04T10:57:33;10.80;99.90
7958;DHT22;4024;52.172;5.378;2023-03-04T11:00:02;11.00;99.90
7958;DHT22;4024;52.172;5.378;2023-03-04T11:02:34;10.90;99.90
7958;DHT22;4024;52.172;5.378;2023-03-04T11:05:17;10.90;99.90
7958;DHT22;4024;52.172;5.378;2023-03-04T11:07:54;11.00;99.90
7958;DHT22;4024;52.172;5.378;2023-03-04T11:13:24;10.90;99.90
7958;DHT22;4024;52.172;5.378;2023-03-04T11:16:02;10.80;99.90
7958;DHT22;4024;52.172;5.378;2023-03-04T11:18:40;10.80;99.90
7958;DHT22;4024;52.172;5.378;2023-03-04T11:21:07;10.70;99.90
7958;DHT22;4024;52.172;5.378;2023-03-04T11:23:46;10.60;99.90
7958;DHT22;4024;52.172;5.378;2023-03-04T11:26:27;10.50;99.90
7958;DHT22;4024;52.172;5.378;2023-03-04T11:28:59;10.40;99.90
7958;DHT22;4024;52.172;5.378;2023-03-04T11:31:39;10.30;99.90
7958;DHT22;4024;52.172;5.378;2023-03-04T11:34:16;10.20;99.90
7958;DHT22;4024;52.172;5.378;2023-03-04T11:39:28;10.10;99.90
7958;DHT22;4024;52.172;5.378;2023-03-04T11:44:40;10.00;99.90
7958;DHT22;4024;52.172;5.378;2023-03-04T11:52:21;9.90;99.90
7958;DHT22;4024;52.172;5.378;2023-03-04T11:57:45;9.90;99.90
7958;DHT22;4024;52.172;5.378;2023-03-04T12:00:21;9.90;99.90
7958;DHT22;4024;52.172;5.378;2023-03-04T12:11:28;10.20;99.90
7958;DHT22;4024;52.172;5.378;2023-03-04T12:14:01;10.20;99.90
7958;DHT22;4024;52.172;5.378;2023-03-04T12:16:42;10.20;99.90
7958;DHT22;4024;52.172;5.378;2023-03-04T12:19:34;10.20;99.90
7958;DHT22;4024;52.172;5.378;2023-03-04T12:24:42;10.20;99.90
7958;DHT22;4024;52.172;5.378;2023-03-04T12:30:00;10.20;99.90
7958;DHT22;4024;52.172;5.378;2023-03-04T12:32:41;10.20;99.90
7958;DHT22;4024;52.172;5.378;2023-03-04T12:35:30;10.30;99.90
7958;DHT22;4024;52.172;5.378;2023-03-04T12:43:39;10.40;99.90
7958;DHT22;4024;52.172;5.378;2023-03-04T12:46:30;10.40;99.90
7958;DHT22;4024;52.172;5.378;2023-03-04T12:51:53;10.50;99.90
7958;DHT22;4024;52.172;5.378;2023-03-04T12:54:30;10.50;99.90
7958;DHT22;4024;52.172;5.378;2023-03-04T12:57:26;10.60;99.90
7958;DHT22;4024;52.172;5.378;2023-03-04T13:10:50;10.60;99.90
7958;DHT22;4024;52.172;5.378;2023-03-04T13:13:37;10.60;99.90
7958;DHT22;4024;52.172;5.378;2023-03-04T13:16:06;10.50;99.90
7958;DHT22;4024;52.172;5.378;2023-03-04T13:18:47;10.40;99.90
7958;DHT22;4024;52.172;5.378;2023-03-04T13:21:26;10.40;99.90
7958;DHT22;4024;52.172;5.378;2023-03-04T13:23:53;10.40;99.90
7958;DHT22;4024;52.172;5.378;2023-03-04T13:26:22;10.40;99.90
7958;DHT22;4024;52.172;5.378;2023-03-04T13:32:00;10.30;99.90
7958;DHT22;4024;52.172;5.378;2023-03-04T13:34:47;10.30;99.90
7958;DHT22;4024;52.172;5.378;2023-03-04T13:42:45;10.30;99.90
7958;DHT22;4024;52.172;5.378;2023-03-04T13:45:31;10.40;99.90
7958;DHT22;4024;52.172;5.378;2023-03-04T13:47:57;10.40;99.90
7958;DHT22;4024;52.172;5.378;2023-03-04T13:50:33;10.50;99.90
7958;DHT22;4024;52.172;5.378;2023-03-04T13:56:17;10.50;99.90
7958;DHT22;4024;52.172;5.378;2023-03-04T13:58:45;10.50;99.90
7958;DHT22;4024;52.172;5.378;2023-03-04T14:01:29;10.50;99.90
7958;DHT22;4024;52.172;5.378;2023-03-04T14:03:57;10.50;99.90
7958;DHT22;4024;52.172;5.378;2023-03-04T14:06:29;10.50;99.90
7958;DHT22;4024;52.172;5.378;2023-03-04T14:08:56;10.50;99.90
7958;DHT22;4024;52.172;5.378;2023-03-04T14:11:23;10.50;99.90
7958;DHT22;4024;52.172;5.378;2023-03-04T14:13:51;10.50;99.90
7958;DHT22;4024;52.172;5.378;2023-03-04T14:16:19;10.50;99.90
7958;DHT22;4024;52.172;5.378;2023-03-04T14:18:56;10.50;99.90
7958;DHT22;4024;52.172;5.378;2023-03-04T14:21:21;10.50;99.90
7958;DHT22;4024;52.172;5.378;2023-03-04T14:24:02;10.40;99.90
7958;DHT22;4024;52.172;5.378;2023-03-04T14:26:29;10.40;99.90
7958;DHT22;4024;52.172;5.378;2023-03-04T14:28:55;10.40;99.90
7958;DHT22;4024;52.172;5.378;2023-03-04T14:31:25;10.40;99.90
7958;DHT22;4024;52.172;5.378;2023-03-04T14:33:56;10.40;99.90
7958;DHT22;4024;52.172;5.378;2023-03-04T14:36:31;10.40;99.90
7958;DHT22;4024;52.172;5.378;2023-03-04T14:38:59;10.40;99.90
7958;DHT22;4024;52.172;5.378;2023-03-04T14:41:37;10.40;99.90
7958;DHT22;4024;52.172;5.378;2023-03-04T14:44:19;10.30;99.90
7958;DHT22;4024;52.172;5.378;2023-03-04T14:46:49;10.40;99.90
7958;DHT22;4024;52.172;5.378;2023-03-04T14:49:16;10.30;99.90
7958;DHT22;4024;52.172;5.378;2023-03-04T14:51:50;10.30;99.90
7958;DHT22;4024;52.172;5.378;2023-03-04T14:54:42;10.30;99.90
7958;DHT22;4024;52.172;5.378;2023-03-04T14:57:34;10.30;99.90
7958;DHT22;4024;52.172;5.378;2023-03-04T15:02:51;10.30;99.90
7958;DHT22;4024;52.172;5.378;2023-03-04T15:05:41;10.30;99.90
7958;DHT22;4024;52.172;5.378;2023-03-04T15:08:19;10.30;99.90
7958;DHT22;4024;52.172;5.378;2023-03-04T15:10:54;10.20;99.90
7958;DHT22;4024;52.172;5.378;2023-03-04T15:14:24;10.20;99.90
7958;DHT22;4024;52.172;5.378;2023-03-04T15:16:38;10.20;99.90
7958;DHT22;4024;52.172;5.378;2023-03-04T15:19:25;10.20;99.90
7958;DHT22;4024;52.172;5.378;2023-03-04T15:22:02;10.10;99.90
7958;DHT22;4024;52.172;5.378;2023-03-04T15:24:28;10.10;99.90
7958;DHT22;4024;52.172;5.378;2023-03-04T15:26:53;10.10;99.90
7958;DHT22;4024;52.172;5.378;2023-03-04T15:29:19;10.10;99.90
7958;DHT22;4024;52.172;5.378;2023-03-04T15:31:47;10.10;99.90
7958;DHT22;4024;52.172;5.378;2023-03-04T15:34:18;10.10;99.90
7958;DHT22;4024;52.172;5.378;2023-03-04T15:36:46;10.20;99.90
7958;DHT22;4024;52.172;5.378;2023-03-04T15:39:14;10.20;99.90
7958;DHT22;4024;52.172;5.378;2023-03-04T15:41:40;10.20;99.90
7958;DHT22;4024;52.172;5.378;2023-03-04T15:44:06;10.20;99.90
7958;DHT22;4024;52.172;5.378;2023-03-04T15:46:32;10.20;99.90
7958;DHT22;4024;52.172;5.378;2023-03-04T15:48:57;10.20;99.90
7958;DHT22;4024;52.172;5.378;2023-03-04T15:51:24;10.20;99.90
7958;DHT22;4024;52.172;5.378;2023-03-04T15:53:52;10.10;99.90
7958;DHT22;4024;52.172;5.378;2023-03-04T15:56:28;10.20;99.90
7958;DHT22;4024;52.172;5.378;2023-03-04T15:58:56;10.20;99.90
7958;DHT22;4024;52.172;5.378;2023-03-04T16:01:23;10.20;99.90
7958;DHT22;4024;52.172;5.378;2023-03-04T16:03:49;10.10;99.90
7958;DHT22;4024;52.172;5.378;2023-03-04T16:06:15;10.10;99.90
7958;DHT22;4024;52.172;5.378;2023-03-04T16:08:46;10.10;99.90
7958;DHT22;4024;52.172;5.378;2023-03-04T16:11:21;10.10;99.90
7958;DHT22;4024;52.172;5.378;2023-03-04T16:13:48;10.10;99.90
7958;DHT22;4024;52.172;5.378;2023-03-04T16:16:14;10.10;99.90
7958;DHT22;4024;52.172;5.378;2023-03-04T16:18:40;10.10;99.90
7958;DHT22;4024;52.172;5.378;2023-03-04T16:21:10;10.10;99.90
7958;DHT22;4024;52.172;5.378;2023-03-04T16:23:42;10.10;99.90
7958;DHT22;4024;52.172;5.378;2023-03-04T16:26:17;10.10;99.90
7958;DHT22;4024;52.172;5.378;2023-03-04T16:28:44;10.00;99.90
7958;DHT22;4024;52.172;5.378;2023-03-04T16:31:11;10.00;99.90
7958;DHT22;4024;52.172;5.378;2023-03-04T16:33:36;10.00;99.90
7958;DHT22;4024;52.172;5.378;2023-03-04T16:36:03;9.90;99.90
7958;DHT22;4024;52.172;5.378;2023-03-04T16:38:31;9.90;99.90
7958;DHT22;4024;52.172;5.378;2023-03-04T16:40:58;9.90;99.90
7958;DHT22;4024;52.172;5.378;2023-03-04T16:43:26;9.80;99.90
7958;DHT22;4024;52.172;5.378;2023-03-04T16:45:52;9.80;99.90
7958;DHT22;4024;52.172;5.378;2023-03-04T16:48:17;9.80;99.90
7958;DHT22;4024;52.172;5.378;2023-03-04T16:50:44;9.70;99.90
7958;DHT22;4024;52.172;5.378;2023-03-04T16:53:28;9.70;99.90
7958;DHT22;4024;52.172;5.378;2023-03-04T16:55:57;9.70;99.90
7958;DHT22;4024;52.172;5.378;2023-03-04T16:58:25;9.70;99.90
7958;DHT22;4024;52.172;5.378;2023-03-04T17:00:51;9.70;99.90
7958;DHT22;4024;52.172;5.378;2023-03-04T17:03:16;9.70;99.90
7958;DHT22;4024;52.172;5.378;2023-03-04T17:05:43;9.60;99.90
7958;DHT22;4024;52.172;5.378;2023-03-04T17:08:08;9.60;99.90
7958;DHT22;4024;52.172;5.378;2023-03-04T17:10:34;9.60;99.90
7958;DHT22;4024;52.172;5.378;2023-03-04T17:13:00;9.60;99.90
7958;DHT22;4024;52.172;5.378;2023-03-04T17:15:26;9.50;99.90
7958;DHT22;4024;52.172;5.378;2023-03-04T17:17:52;9.50;99.90
7958;DHT22;4024;52.172;5.378;2023-03-04T17:20:18;9.50;99.90
7958;DHT22;4024;52.172;5.378;2023-03-04T17:22:44;9.50;99.90
7958;DHT22;4024;52.172;5.378;2023-03-04T17:25:11;9.50;99.90
7958;DHT22;4024;52.172;5.378;2023-03-04T17:27:37;9.50;99.90
7958;DHT22;4024;52.172;5.378;2023-03-04T17:30:04;9.40;99.90
7958;DHT22;4024;52.172;5.378;2023-03-04T17:32:31;9.40;99.90
7958;DHT22;4024;52.172;5.378;2023-03-04T17:34:57;9.30;99.90
7958;DHT22;4024;52.172;5.378;2023-03-04T17:37:23;9.30;99.90
7958;DHT22;4024;52.172;5.378;2023-03-04T17:39:48;9.20;99.90
7958;DHT22;4024;52.172;5.378;2023-03-04T17:42:15;9.20;99.90
7958;DHT22;4024;52.172;5.378;2023-03-04T17:44:41;9.20;99.90
7958;DHT22;4024;52.172;5.378;2023-03-04T17:47:07;9.20;99.90